createdAt,value
2018-03-21T00:01:35.789Z,21.08
2018-03-21T00:04:04.686Z,17.05
2018-03-21T00:06:33.540Z,15.05
2018-03-21T00:09:02.428Z,17.23
2018-03-21T00:11:31.281Z,13.82
2018-03-21T00:14:00.261Z,14.50
2018-03-21T00:16:29.170Z,17.90
2018-03-21T00:18:58.046Z,13.70
2018-03-21T00:21:26.911Z,16.58
2018-03-21T00:23:55.771Z,14.43
2018-03-21T00:26:25.378Z,9.75
2018-03-21T00:28:54.991Z,10.45
2018-03-21T00:31:24.620Z,11.57
2018-03-21T00:33:53.518Z,11.23
2018-03-21T00:36:22.316Z,11.52
2018-03-21T00:38:51.172Z,12.13
2018-03-21T00:41:20.778Z,13.30
2018-03-21T00:43:50.400Z,11.60
2018-03-21T00:46:19.285Z,11.45
2018-03-21T00:48:48.924Z,19.10
2018-03-21T00:51:17.800Z,20.95
2018-03-21T00:53:46.491Z,22.23
2018-03-21T00:56:15.366Z,32.42
2018-03-21T00:58:45.036Z,41.88
2018-03-21T01:01:13.869Z,35.25
2018-03-21T01:03:43.521Z,24.23
2018-03-21T01:06:12.024Z,19.52
2018-03-21T01:08:40.894Z,19.85
2018-03-21T01:11:09.790Z,16.98
2018-03-21T01:13:38.843Z,20.02
2018-03-21T01:16:07.697Z,14.50
2018-03-21T01:18:36.545Z,15.18
2018-03-21T01:21:05.151Z,13.55
2018-03-21T01:23:33.890Z,12.02
2018-03-21T01:26:02.725Z,16.05
2018-03-21T01:28:31.625Z,17.35
2018-03-21T01:31:00.520Z,17.70
2018-03-21T01:33:29.512Z,17.65
2018-03-21T01:35:58.351Z,20.55
2018-03-21T01:38:27.212Z,16.85
2018-03-21T01:40:56.049Z,14.52
2018-03-21T01:43:24.894Z,20.23
2018-03-21T01:45:53.742Z,20.45
2018-03-21T01:48:23.364Z,18.42
2018-03-21T01:50:53.014Z,20.05
2018-03-21T01:53:21.845Z,19.12
2018-03-21T01:55:50.656Z,25.95
2018-03-21T01:58:20.248Z,19.30
2018-03-21T02:00:49.070Z,22.20
2018-03-21T02:03:17.933Z,23.10
2018-03-21T02:05:46.773Z,18.17
2018-03-21T02:08:15.604Z,18.92
2018-03-21T02:10:44.464Z,19.35
2018-03-21T02:13:13.328Z,16.27
2018-03-21T02:15:42.958Z,16.48
2018-03-21T02:18:11.824Z,16.83
2018-03-21T02:20:41.437Z,17.77
2018-03-21T02:23:11.074Z,16.55
2018-03-21T02:25:39.941Z,15.88
2018-03-21T02:28:09.558Z,18.20
2018-03-21T02:30:39.445Z,16.85
2018-03-21T02:33:08.462Z,19.75
2018-03-21T02:35:38.089Z,20.48
2018-03-21T02:38:06.937Z,15.52
2018-03-21T02:40:35.784Z,17.50
2018-03-21T02:43:04.636Z,16.55
2018-03-21T02:45:33.498Z,17.75
2018-03-21T02:48:02.375Z,19.60
2018-03-21T02:50:31.232Z,18.33
2018-03-21T02:53:00.820Z,15.98
2018-03-21T02:55:29.678Z,17.77
2018-03-21T02:57:58.565Z,20.55
2018-03-21T03:00:27.640Z,19.27
2018-03-21T03:02:56.573Z,20.08
2018-03-21T03:05:25.405Z,20.80
2018-03-21T03:07:55.024Z,20.48
2018-03-21T03:10:24.630Z,19.00
2018-03-21T03:12:54.276Z,18.83
2018-03-21T03:15:23.123Z,22.20
2018-03-21T03:17:52.692Z,20.60
2018-03-21T03:20:21.599Z,25.33
2018-03-21T03:22:50.452Z,20.30
2018-03-21T03:25:19.311Z,21.92
2018-03-21T03:27:48.932Z,21.23
2018-03-21T03:30:17.639Z,19.15
2018-03-21T03:32:46.606Z,15.88
2018-03-21T03:35:15.464Z,22.83
2018-03-21T03:37:44.323Z,16.37
2018-03-21T03:40:13.206Z,18.67
2018-03-21T03:42:42.051Z,15.05
2018-03-21T03:45:10.906Z,14.87
2018-03-21T03:47:39.790Z,20.65
2018-03-21T03:50:08.619Z,17.73
2018-03-21T03:52:37.465Z,23.35
2018-03-21T03:55:06.317Z,21.60
2018-03-21T03:57:35.204Z,18.55
2018-03-21T04:00:03.769Z,20.15
2018-03-21T04:02:32.682Z,20.30
2018-03-21T04:05:01.586Z,20.45
2018-03-21T04:07:30.469Z,15.85
2018-03-21T04:09:59.354Z,23.73
2018-03-21T04:12:28.180Z,21.40
2018-03-21T04:14:57.830Z,26.08
2018-03-21T04:17:26.719Z,23.30
2018-03-21T04:19:55.477Z,23.38
2018-03-21T04:22:24.964Z,21.12
2018-03-21T04:24:53.784Z,23.30
2018-03-21T04:27:22.623Z,21.45
2018-03-21T04:29:51.466Z,19.12
2018-03-21T04:32:21.114Z,18.17
2018-03-21T04:34:50.000Z,18.05
2018-03-21T04:37:19.606Z,17.87
2018-03-21T04:39:48.471Z,18.37
2018-03-21T04:42:18.139Z,22.27
2018-03-21T04:44:46.806Z,18.87
2018-03-21T04:47:15.608Z,19.98
2018-03-21T04:49:44.472Z,20.52
2018-03-21T04:52:13.306Z,20.02
2018-03-21T04:54:42.026Z,24.80
2018-03-21T04:57:11.488Z,24.25
2018-03-21T04:59:40.207Z,23.00
2018-03-21T05:02:09.071Z,22.83
2018-03-21T05:04:38.006Z,24.48
2018-03-21T05:07:06.944Z,21.08
2018-03-21T05:09:35.783Z,17.58
2018-03-21T05:12:18.999Z,19.12
2018-03-21T05:14:47.857Z,22.52
2018-03-21T05:17:16.978Z,18.37
2018-03-21T05:19:45.861Z,19.77
2018-03-21T05:22:14.685Z,25.02
2018-03-21T05:24:43.539Z,16.98
2018-03-21T05:27:12.392Z,23.98
2018-03-21T05:29:42.009Z,24.45
2018-03-21T05:32:11.640Z,21.73
2018-03-21T05:34:40.515Z,21.90
2018-03-21T05:37:09.417Z,22.35
2018-03-21T05:39:39.131Z,20.73
2018-03-21T05:42:08.039Z,21.80
2018-03-21T05:44:36.923Z,18.30
2018-03-21T05:47:05.780Z,19.58
2018-03-21T05:49:43.151Z,19.92
2018-03-21T05:52:13.654Z,16.58
2018-03-21T05:54:42.536Z,19.35
2018-03-21T05:57:11.411Z,15.93
2018-03-21T05:59:41.019Z,16.17
2018-03-21T06:02:10.656Z,20.17
2018-03-21T06:04:39.517Z,14.63
2018-03-21T06:07:09.021Z,20.20
2018-03-21T06:09:38.621Z,18.27
2018-03-21T06:12:07.469Z,17.58
2018-03-21T06:14:36.321Z,20.05
2018-03-21T06:17:05.915Z,17.60
2018-03-21T06:19:34.778Z,21.52
2018-03-21T06:22:03.646Z,19.92
2018-03-21T06:24:32.497Z,16.33
2018-03-21T06:27:01.362Z,19.98
2018-03-21T06:29:30.207Z,18.58
2018-03-21T06:31:59.053Z,23.92
2018-03-21T06:34:27.931Z,21.20
2018-03-21T06:36:56.781Z,21.50
2018-03-21T06:39:25.644Z,25.20
2018-03-21T06:41:54.476Z,24.85
2018-03-21T06:44:23.395Z,20.77
2018-03-21T06:46:52.271Z,24.87
2018-03-21T06:49:21.122Z,21.12
2018-03-21T06:51:50.367Z,19.77
2018-03-21T06:54:19.233Z,20.05
2018-03-21T06:56:48.880Z,22.08
2018-03-21T06:59:20.813Z,20.77
2018-03-21T07:01:49.666Z,21.95
2018-03-21T07:04:18.547Z,21.75
2018-03-21T07:06:47.421Z,22.90
2018-03-21T07:09:16.323Z,20.92
2018-03-21T07:11:45.190Z,22.42
2018-03-21T07:14:25.134Z,22.60
2018-03-21T07:16:54.018Z,19.90
2018-03-21T07:19:23.633Z,19.73
2018-03-21T07:21:53.272Z,20.58
2018-03-21T07:24:22.164Z,17.92
2018-03-21T07:26:51.016Z,20.12
2018-03-21T07:29:19.885Z,19.58
2018-03-21T07:31:48.591Z,19.75
2018-03-21T07:34:18.245Z,20.00
2018-03-21T07:36:47.115Z,21.23
2018-03-21T07:39:16.756Z,19.80
2018-03-21T07:41:45.630Z,20.37
2018-03-21T07:44:14.536Z,25.12
2018-03-21T07:46:43.414Z,19.17
2018-03-21T07:49:12.114Z,18.02
2018-03-21T07:51:41.012Z,20.00
2018-03-21T07:54:09.874Z,23.17
2018-03-21T07:56:39.541Z,19.50
2018-03-21T07:59:08.371Z,18.87
2018-03-21T08:01:38.004Z,19.37
2018-03-21T08:04:06.871Z,18.87
2018-03-21T08:06:35.790Z,22.02
2018-03-21T08:09:04.108Z,20.20
2018-03-21T08:11:32.961Z,18.55
2018-03-21T08:14:09.154Z,20.42
2018-03-21T08:16:38.035Z,16.20
2018-03-21T08:19:06.606Z,18.33
2018-03-21T08:21:35.438Z,20.40
2018-03-21T08:24:04.012Z,18.73
2018-03-21T08:26:33.610Z,18.90
2018-03-21T08:29:02.535Z,20.45
2018-03-21T08:31:32.330Z,21.48
2018-03-21T08:34:01.300Z,21.45
2018-03-21T08:36:30.186Z,20.42
2018-03-21T08:38:59.147Z,21.25
2018-03-21T08:41:28.001Z,20.65
2018-03-21T08:43:56.888Z,22.65
2018-03-21T08:46:25.700Z,22.45
2018-03-21T08:48:54.582Z,19.23
2018-03-21T08:51:23.439Z,12.63
2018-03-21T08:53:52.744Z,9.40
2018-03-21T08:56:22.377Z,10.00
2018-03-21T08:58:51.211Z,9.43
2018-03-21T09:01:20.045Z,7.18
2018-03-21T09:03:49.702Z,6.50
2018-03-21T09:06:18.496Z,8.55
2018-03-21T09:08:47.353Z,7.40
2018-03-21T09:11:16.196Z,7.03
2018-03-21T09:13:45.067Z,8.55
2018-03-21T09:16:13.927Z,9.60
2018-03-21T09:18:42.756Z,6.50
2018-03-21T09:21:11.573Z,6.97
2018-03-21T09:23:40.448Z,8.98
2018-03-21T09:26:09.305Z,6.00
2018-03-21T09:28:38.096Z,6.60
2018-03-21T09:31:06.658Z,5.80
2018-03-21T09:33:35.267Z,4.47
2018-03-21T09:36:03.848Z,7.60
2018-03-21T09:38:32.417Z,4.07
2018-03-21T09:41:01.066Z,4.67
2018-03-21T09:43:29.740Z,9.00
2018-03-21T09:45:59.099Z,5.00
2018-03-21T09:48:27.673Z,4.50
2018-03-21T09:50:56.215Z,3.93
2018-03-21T09:53:24.806Z,9.13
2018-03-21T09:55:54.165Z,4.50
2018-03-21T09:58:23.680Z,3.93
2018-03-21T10:00:52.192Z,6.20
2018-03-21T10:03:20.775Z,7.67
2018-03-21T10:05:49.358Z,7.27
2018-03-21T10:08:17.922Z,6.13
2018-03-21T10:10:46.520Z,6.23
2018-03-21T10:13:15.043Z,5.50
2018-03-21T10:15:44.373Z,5.57
2018-03-21T10:18:12.978Z,5.83
2018-03-21T10:20:42.399Z,5.23
2018-03-21T10:23:11.011Z,4.67
2018-03-21T10:25:39.597Z,5.20
2018-03-21T10:28:08.185Z,4.90
2018-03-21T10:30:37.538Z,6.37
2018-03-21T10:33:05.944Z,4.60
2018-03-21T10:35:34.496Z,3.70
2018-03-21T10:38:03.044Z,4.47
2018-03-21T10:40:32.400Z,5.87
2018-03-21T10:43:00.845Z,3.67
2018-03-21T10:45:29.491Z,6.03
2018-03-21T10:47:58.067Z,4.73
2018-03-21T10:50:26.652Z,6.17
2018-03-21T10:52:55.237Z,3.63
2018-03-21T10:55:23.904Z,3.90
2018-03-21T10:57:52.468Z,3.07
2018-03-21T11:00:21.769Z,3.17
2018-03-21T11:02:56.556Z,2.50
2018-03-21T11:05:25.098Z,2.90
2018-03-21T11:07:53.618Z,3.47
2018-03-21T11:10:22.169Z,4.83
2018-03-21T11:12:52.888Z,3.63
2018-03-21T11:15:22.249Z,7.60
2018-03-21T11:17:50.859Z,5.80
2018-03-21T11:20:22.878Z,3.93
2018-03-21T11:22:51.504Z,4.47
2018-03-21T11:25:20.142Z,3.73
2018-03-21T11:27:49.752Z,3.67
2018-03-21T11:30:19.356Z,4.13
2018-03-21T11:32:48.944Z,2.87
2018-03-21T11:35:18.568Z,3.67
2018-03-21T11:37:48.118Z,3.13
2018-03-21T11:43:08.772Z,3.57
2018-03-21T11:45:38.468Z,5.07
2018-03-21T11:48:08.076Z,3.73
2018-03-21T11:50:37.669Z,4.83
2018-03-21T11:53:07.295Z,3.70
2018-03-21T11:55:36.912Z,7.20
2018-03-21T11:58:06.521Z,8.23
2018-03-21T12:00:43.192Z,5.27
2018-03-21T12:03:12.840Z,6.33
2018-03-21T12:05:43.265Z,17.03
2018-03-21T12:08:12.922Z,8.90
2018-03-21T12:10:42.572Z,7.40
2018-03-21T12:13:12.226Z,5.80
2018-03-21T12:15:41.813Z,2.97
2018-03-21T12:18:11.507Z,4.67
2018-03-21T12:20:41.186Z,2.93
2018-03-21T12:23:13.631Z,3.03
2018-03-21T12:25:43.207Z,2.60
2018-03-21T12:28:12.804Z,4.03
2018-03-21T12:30:44.348Z,2.63
2018-03-21T12:33:14.005Z,2.53
2018-03-21T12:35:43.625Z,7.00
2018-03-21T12:38:13.240Z,2.50
2018-03-21T12:40:42.858Z,4.30
2018-03-21T12:43:12.624Z,4.10
2018-03-21T12:45:42.224Z,3.77
2018-03-21T12:48:11.765Z,3.40
2018-03-21T12:50:41.418Z,2.77
2018-03-21T12:53:16.733Z,3.50
2018-03-21T12:55:46.414Z,4.47
2018-03-21T12:58:16.117Z,2.87
2018-03-21T13:00:45.764Z,4.10
2018-03-21T13:03:15.409Z,5.10
2018-03-21T13:05:44.987Z,2.57
2018-03-21T13:08:14.554Z,3.23
2018-03-21T13:10:44.177Z,3.00
2018-03-21T13:13:13.784Z,3.27
2018-03-21T13:15:43.361Z,1.70
2018-03-21T13:18:12.955Z,2.30
2018-03-21T13:20:42.518Z,4.17
2018-03-21T13:23:12.087Z,3.43
2018-03-21T13:25:41.647Z,2.50
2018-03-21T13:28:11.248Z,3.33
2018-03-21T13:30:40.681Z,2.53
2018-03-21T13:33:10.292Z,3.30
2018-03-21T13:35:39.891Z,4.77
2018-03-21T13:38:09.495Z,2.93
2018-03-21T13:40:39.073Z,2.70
2018-03-21T13:43:08.639Z,2.57
2018-03-21T13:45:38.260Z,5.80
2018-03-21T13:48:07.708Z,7.17
2018-03-21T13:50:37.262Z,4.07
2018-03-21T13:53:06.886Z,3.47
2018-03-21T13:55:36.496Z,2.83
2018-03-21T13:58:06.084Z,4.80
2018-03-21T14:00:35.683Z,3.50
2018-03-21T14:03:05.286Z,2.20
2018-03-21T14:05:34.920Z,2.37
2018-03-21T14:08:04.515Z,3.40
2018-03-21T14:10:34.128Z,5.80
2018-03-21T14:13:03.707Z,2.27
2018-03-21T14:15:33.294Z,4.07
2018-03-21T14:18:02.879Z,18.87
2018-03-21T14:20:32.454Z,7.07
2018-03-21T14:23:02.069Z,4.10
2018-03-21T14:25:31.659Z,4.87
2018-03-21T14:28:01.303Z,3.37
2018-03-21T14:30:30.903Z,3.60
2018-03-21T14:33:00.608Z,3.10
2018-03-21T14:35:30.298Z,3.83
2018-03-21T14:38:00.123Z,4.07
2018-03-21T14:40:29.742Z,3.40
2018-03-21T14:42:59.402Z,3.33
2018-03-21T14:45:28.992Z,3.43
2018-03-21T14:47:58.974Z,5.80
2018-03-21T14:50:28.712Z,5.03
2018-03-21T14:52:58.317Z,7.93
2018-03-21T14:55:27.909Z,6.57
2018-03-21T14:57:56.553Z,5.60
2018-03-21T15:00:25.161Z,5.27
2018-03-21T15:02:53.587Z,5.23
2018-03-21T15:05:22.370Z,6.93
2018-03-21T15:07:51.061Z,3.83
2018-03-21T15:10:19.716Z,5.43
2018-03-21T15:12:48.272Z,3.83
2018-03-21T15:15:16.836Z,3.07
2018-03-21T15:17:45.491Z,4.67
2018-03-21T15:20:14.185Z,6.17
2018-03-21T15:22:42.782Z,3.43
2018-03-21T15:25:12.377Z,4.40
2018-03-21T15:27:40.948Z,4.60
2018-03-21T15:30:09.513Z,4.40
2018-03-21T15:32:38.081Z,4.30
2018-03-21T15:35:06.653Z,4.60
2018-03-21T15:37:35.215Z,7.90
2018-03-21T15:40:03.681Z,4.87
2018-03-21T15:42:32.220Z,3.63
2018-03-21T15:45:00.881Z,3.87
2018-03-21T15:47:29.523Z,6.47
2018-03-21T15:49:58.112Z,7.40
2018-03-21T15:52:26.721Z,8.60
2018-03-21T15:54:54.933Z,8.80
2018-03-21T15:57:23.616Z,7.77
2018-03-21T15:59:52.203Z,7.70
2018-03-21T16:02:20.784Z,4.03
2018-03-21T16:04:50.148Z,8.10
2018-03-21T16:07:18.791Z,11.77
2018-03-21T16:09:47.344Z,11.63
2018-03-21T16:12:15.936Z,12.80
2018-03-21T16:14:45.234Z,11.03
2018-03-21T16:17:13.836Z,21.17
2018-03-21T16:19:42.474Z,10.33
2018-03-21T16:22:25.786Z,5.70
2018-03-21T16:25:05.129Z,9.53
2018-03-21T16:27:33.783Z,9.13
2018-03-21T16:30:06.937Z,7.93
2018-03-21T16:32:35.558Z,7.80
2018-03-21T16:35:04.492Z,8.20
2018-03-21T16:37:33.065Z,5.17
2018-03-21T16:40:01.651Z,7.93
2018-03-21T16:42:30.296Z,4.50
2018-03-21T16:44:58.896Z,6.67
2018-03-21T16:47:28.263Z,6.27
2018-03-21T16:49:56.883Z,6.87
2018-03-21T16:52:25.468Z,7.07
2018-03-21T16:54:54.035Z,8.13
2018-03-21T16:57:22.623Z,8.50
2018-03-21T16:59:51.324Z,26.47
2018-03-21T17:02:19.916Z,14.63
2018-03-21T17:04:49.290Z,7.07
2018-03-21T17:07:17.880Z,6.73
2018-03-21T17:09:46.487Z,7.20
2018-03-21T17:12:15.935Z,8.67
2018-03-21T17:14:44.520Z,7.67
2018-03-21T17:17:13.111Z,7.63
2018-03-21T17:19:41.713Z,7.23
2018-03-21T17:22:11.218Z,10.27
2018-03-21T17:24:39.843Z,10.70
2018-03-21T17:27:08.441Z,8.93
2018-03-21T17:29:38.257Z,9.23
2018-03-21T17:32:08.396Z,7.30
2018-03-21T17:34:36.977Z,5.63
2018-03-21T17:37:05.646Z,7.63
2018-03-21T17:39:34.997Z,8.27
2018-03-21T17:42:04.758Z,8.03
2018-03-21T17:44:33.336Z,7.70
2018-03-21T17:50:02.046Z,9.27
2018-03-21T17:52:30.624Z,8.90
2018-03-21T17:54:59.209Z,7.53
2018-03-21T17:57:27.791Z,9.80
2018-03-21T18:00:07.129Z,8.57
2018-03-21T18:02:35.750Z,6.83
2018-03-21T18:05:05.095Z,8.67
2018-03-21T18:07:33.700Z,9.20
2018-03-21T18:10:02.274Z,14.20
2018-03-21T18:12:30.884Z,19.77
2018-03-21T18:14:59.457Z,12.70
2018-03-21T18:17:28.037Z,11.10
2018-03-21T18:19:56.693Z,6.33
2018-03-21T18:22:26.238Z,5.47
2018-03-21T18:24:54.841Z,6.07
2018-03-21T18:27:23.516Z,6.57
2018-03-21T18:29:53.433Z,4.87
2018-03-21T18:32:22.037Z,9.53
2018-03-21T18:34:50.636Z,6.23
2018-03-21T18:37:19.205Z,5.73
2018-03-21T18:39:48.350Z,4.60
2018-03-21T18:42:19.055Z,5.17
2018-03-21T18:44:47.656Z,6.03
2018-03-21T18:47:16.975Z,7.50
2018-03-21T18:49:46.343Z,8.00
2018-03-21T18:52:14.819Z,11.00
2018-03-21T18:54:43.278Z,10.13
2018-03-21T18:57:11.846Z,9.33
2018-03-21T18:59:40.575Z,11.30
2018-03-21T19:02:09.995Z,7.93
2018-03-21T19:04:38.687Z,8.40
2018-03-21T19:07:07.337Z,12.97
2018-03-21T19:09:36.029Z,17.17
2018-03-21T19:12:04.679Z,13.20
2018-03-21T19:14:36.973Z,11.40
2018-03-21T19:17:05.652Z,14.90
2018-03-21T19:19:34.277Z,11.03
2018-03-21T19:22:02.922Z,10.07
2018-03-21T19:24:31.678Z,13.03
2018-03-21T19:27:00.406Z,12.37
2018-03-21T19:29:30.140Z,16.70
2018-03-21T19:31:59.130Z,10.02
2018-03-21T19:34:27.888Z,13.50
2018-03-21T19:36:56.530Z,12.53
2018-03-21T19:39:25.156Z,9.80
2018-03-21T19:41:53.722Z,7.67
2018-03-21T19:44:22.346Z,9.10
2018-03-21T19:46:51.148Z,9.03
2018-03-21T19:49:20.101Z,6.95
2018-03-21T19:51:49.404Z,5.57
2018-03-21T19:54:18.020Z,10.20
2018-03-21T19:56:46.890Z,15.32
2018-03-21T19:59:15.819Z,16.02
2018-03-21T20:01:44.693Z,15.07
2018-03-21T20:04:13.363Z,15.53
2018-03-21T20:06:42.031Z,44.13
2018-03-21T20:09:10.961Z,32.30
2018-03-21T20:11:40.672Z,29.73
2018-03-21T20:14:09.549Z,16.20
2018-03-21T20:16:38.409Z,18.12
2018-03-21T20:19:07.294Z,18.05
2018-03-21T20:21:35.875Z,25.53
2018-03-21T20:24:04.766Z,28.02
2018-03-21T20:26:33.795Z,23.45
2018-03-21T20:29:02.634Z,17.52
2018-03-21T20:31:32.578Z,19.37
2018-03-21T20:34:01.454Z,18.52
2018-03-21T20:36:30.179Z,22.70
2018-03-21T20:38:59.190Z,25.35
2018-03-21T20:41:27.773Z,31.50
2018-03-21T20:43:56.678Z,33.88
2018-03-21T20:46:25.568Z,21.87
2018-03-21T20:48:54.490Z,22.13
2018-03-21T20:51:23.337Z,16.05
2018-03-21T20:53:52.203Z,12.77
2018-03-21T20:56:21.158Z,14.05
2018-03-21T20:58:50.236Z,8.13
2018-03-21T21:01:19.056Z,12.18
2018-03-21T21:03:47.928Z,13.30
2018-03-21T21:06:16.831Z,13.52
2018-03-21T21:08:45.693Z,17.27
2018-03-21T21:11:14.596Z,21.08
2018-03-21T21:13:43.403Z,14.13
2018-03-21T21:16:12.267Z,15.98
2018-03-21T21:18:41.085Z,8.48
2018-03-21T21:21:09.962Z,11.65
2018-03-21T21:23:57.269Z,11.40
2018-03-21T21:26:26.911Z,8.57
2018-03-21T21:28:55.768Z,10.88
2018-03-21T21:31:24.652Z,12.13
2018-03-21T21:33:54.456Z,10.23
2018-03-21T21:36:24.126Z,14.95
2018-03-21T21:38:54.689Z,9.25
2018-03-21T21:41:23.605Z,10.70
2018-03-21T21:43:52.476Z,11.50
2018-03-21T21:46:27.787Z,14.02
2018-03-21T21:48:56.880Z,12.60
2018-03-21T21:51:26.420Z,8.40
2018-03-21T21:53:55.336Z,13.77
2018-03-21T21:56:24.915Z,14.87
2018-03-21T21:58:57.958Z,15.55
2018-03-21T22:01:26.947Z,22.00
2018-03-21T22:03:55.900Z,14.68
2018-03-21T22:06:24.837Z,14.40
2018-03-21T22:09:02.077Z,14.02
2018-03-21T22:11:30.982Z,10.77
2018-03-21T22:13:59.882Z,13.32
2018-03-21T22:16:30.250Z,12.95
2018-03-21T22:18:59.156Z,15.23
2018-03-21T22:21:41.590Z,14.73
2018-03-21T22:24:10.668Z,13.07
2018-03-21T22:26:39.556Z,24.10
2018-03-21T22:29:08.410Z,22.85
2018-03-21T22:31:38.018Z,17.08
2018-03-21T22:34:07.664Z,16.33
2018-03-21T22:36:36.565Z,14.48
2018-03-21T22:39:04.845Z,14.90
2018-03-21T22:41:33.692Z,15.32
2018-03-21T22:44:03.340Z,15.43
2018-03-21T22:46:32.193Z,11.30
2018-03-21T22:49:01.890Z,10.15
2018-03-21T22:51:30.759Z,11.30
2018-03-21T22:53:59.620Z,14.30
2018-03-21T22:56:28.555Z,11.95
2018-03-21T22:58:57.424Z,12.95
2018-03-21T23:01:26.326Z,11.18
2018-03-21T23:03:55.195Z,12.02
2018-03-21T23:06:24.074Z,13.95
2018-03-21T23:09:00.272Z,10.10
2018-03-21T23:11:29.108Z,13.77
2018-03-21T23:13:57.968Z,9.98
2018-03-21T23:16:26.876Z,9.65
2018-03-21T23:18:55.724Z,13.98
2018-03-21T23:21:24.597Z,11.10
2018-03-21T23:23:53.466Z,12.68
2018-03-21T23:26:22.307Z,15.20
2018-03-21T23:28:51.259Z,12.32
2018-03-21T23:31:20.170Z,17.08
2018-03-21T23:33:49.864Z,16.60
2018-03-21T23:36:19.569Z,16.75
2018-03-21T23:38:48.424Z,13.13
2018-03-21T23:41:17.339Z,11.20
2018-03-21T23:43:46.212Z,10.32
2018-03-21T23:46:15.067Z,10.52
2018-03-21T23:48:44.894Z,12.20
2018-03-21T23:51:14.251Z,9.85
2018-03-21T23:53:43.187Z,10.50
2018-03-21T23:56:12.173Z,11.80
2018-03-21T23:58:41.039Z,12.77
